Alvarado, Minnesota
Current Conditions -  °F | °C
As of 3:53 AM on Wednesday 22 Oct 2014 (Local Time) from KGFK Reporting Station
Clear Clear  
Wind Chill: 54°   Ceiling: Unl
Heat Index: 54°   Visibility: 10mi
Dew Point: 42°   Wind: 23mph
Humidity: 64%   Direction: 160°SSE
Pressure: 29.81"   Gusts: 30mph
Location:  48.19°N, 97°W
Report Text: KGFK 220853Z AUTO 16020G26KT 10SM CLR 12/06 A2981 RMK AO2 PK WND 15029/0759 SLP097 T01220056 58012 TSNO
Loading
Personal Weather Stations






























Interactive Weather Map
Tropical Storm Tracking
New forecast layout! Learn more

10-Day Weather Forecast

Advertisements
Track Severe Weather on mobile